KDVN/DVN METAR and TAF weather

Enter ICAO airport designator
Station Type Date Time Source
KDVN METAR 2018/07/21 03:52 UTC NOAA

KDVN 210352Z AUTO 30009G17KT 10SM CLR 21/18 A2980 RMK AO2 SLP085 T02060178


Station Type Date Time Source
KDVN Decoded METAR 2018/07/21 03:52 UTC NOAA

DAVENPORT MUNICIPAL AIRPORT, IA, United States (KDVN) 41-37N 90-35W 228M
Jul 20, 2018 - 11:52 PM EDT / 2018.07.21 0352 UTC
Wind: from the WNW (300 degrees) at 10 MPH (9 KT) gusting to 20 MPH (17 KT):0
Visibility: 10 mile(s):0
Sky conditions: clear
Temperature: 69.1 F (20.6 C)
Dew Point: 64.0 F (17.8 C)
Relative Humidity: 83%
Pressure (altimeter): 29.8 in. Hg (1009 hPa)
ob: KDVN 210352Z AUTO 30009G17KT 10SM CLR 21/18 A2980 RMK AO2 SLP085 T02060178
cycle: 4

Station Type Date Time Source
KDVN TAF UTC NOAA

Error!


Example: see airport list